sensor_id;sensor_type;location;lat;lon;timestamp;pressure;altitude;pressure_sealevel;temperature;humidity
46211;BME280;52144;48.040;-1.594;2023-04-23T00:01:57;100108.34;;;16.11;95.30
46211;BME280;52144;48.040;-1.594;2023-04-23T00:04:27;100099.53;;;16.09;95.57
46211;BME280;52144;48.040;-1.594;2023-04-23T00:06:56;100090.34;;;15.89;97.14
46211;BME280;52144;48.040;-1.594;2023-04-23T00:09:28;100087.59;;;15.67;97.75
46211;BME280;52144;48.040;-1.594;2023-04-23T00:11:57;100090.59;;;15.86;98.80
46211;BME280;52144;48.040;-1.594;2023-04-23T00:14:25;100090.00;;;15.94;97.29
46211;BME280;52144;48.040;-1.594;2023-04-23T00:16:55;100091.06;;;15.91;96.54
46211;BME280;52144;48.040;-1.594;2023-04-23T00:19:23;100082.91;;;15.93;97.75
46211;BME280;52144;48.040;-1.594;2023-04-23T00:21:50;100076.16;;;15.76;99.57
46211;BME280;52144;48.040;-1.594;2023-04-23T00:24:19;100069.03;;;15.63;98.82
46211;BME280;52144;48.040;-1.594;2023-04-23T00:26:47;100050.34;;;15.62;100.00
46211;BME280;52144;48.040;-1.594;2023-04-23T00:29:14;100068.38;;;15.84;100.00
46211;BME280;52144;48.040;-1.594;2023-04-23T00:31:42;100057.50;;;15.86;100.00
46211;BME280;52144;48.040;-1.594;2023-04-23T00:34:11;100063.22;;;15.81;100.00
46211;BME280;52144;48.040;-1.594;2023-04-23T00:36:39;100052.53;;;15.21;100.00
46211;BME280;52144;48.040;-1.594;2023-04-23T00:39:07;100044.63;;;15.67;100.00
46211;BME280;52144;48.040;-1.594;2023-04-23T00:41:36;100033.50;;;15.71;100.00
46211;BME280;52144;48.040;-1.594;2023-04-23T00:44:04;100029.22;;;15.57;100.00
46211;BME280;52144;48.040;-1.594;2023-04-23T00:46:32;100027.19;;;15.72;100.00
46211;BME280;52144;48.040;-1.594;2023-04-23T00:49:00;100028.34;;;15.57;100.00
46211;BME280;52144;48.040;-1.594;2023-04-23T00:51:30;100030.69;;;15.61;100.00
46211;BME280;52144;48.040;-1.594;2023-04-23T00:53:58;100037.25;;;15.46;100.00
46211;BME280;52144;48.040;-1.594;2023-04-23T00:56:26;100045.56;;;15.43;100.00
46211;BME280;52144;48.040;-1.594;2023-04-23T00:58:55;100030.19;;;15.45;100.00
46211;BME280;52144;48.040;-1.594;2023-04-23T01:01:23;100034.94;;;15.41;100.00
46211;BME280;52144;48.040;-1.594;2023-04-23T01:03:52;100030.56;;;15.63;100.00
46211;BME280;52144;48.040;-1.594;2023-04-23T01:06:22;100030.16;;;15.80;100.00
46211;BME280;52144;48.040;-1.594;2023-04-23T01:08:55;100031.47;;;15.75;100.00
46211;BME280;52144;48.040;-1.594;2023-04-23T01:11:23;100016.34;;;15.74;100.00
46211;BME280;52144;48.040;-1.594;2023-04-23T01:13:51;100024.06;;;15.90;100.00
46211;BME280;52144;48.040;-1.594;2023-04-23T01:16:18;100009.00;;;16.10;100.00
46211;BME280;52144;48.040;-1.594;2023-04-23T01:18:46;100004.25;;;16.13;100.00
46211;BME280;52144;48.040;-1.594;2023-04-23T01:21:16;100009.63;;;16.13;100.00
46211;BME280;52144;48.040;-1.594;2023-04-23T01:23:45;99994.97;;;15.95;100.00
46211;BME280;52144;48.040;-1.594;2023-04-23T01:26:13;100000.69;;;15.68;100.00
46211;BME280;52144;48.040;-1.594;2023-04-23T01:28:42;99995.47;;;15.89;100.00
46211;BME280;52144;48.040;-1.594;2023-04-23T01:31:11;99987.16;;;16.03;100.00
46211;BME280;52144;48.040;-1.594;2023-04-23T01:33:40;99976.19;;;15.83;100.00
46211;BME280;52144;48.040;-1.594;2023-04-23T01:36:08;99980.28;;;15.65;100.00
46211;BME280;52144;48.040;-1.594;2023-04-23T01:38:37;99965.31;;;15.74;100.00
46211;BME280;52144;48.040;-1.594;2023-04-23T01:41:06;99955.78;;;15.81;100.00
46211;BME280;52144;48.040;-1.594;2023-04-23T01:43:34;99954.63;;;15.61;100.00
46211;BME280;52144;48.040;-1.594;2023-04-23T01:46:02;99945.75;;;15.83;100.00
46211;BME280;52144;48.040;-1.594;2023-04-23T01:48:30;99940.78;;;15.78;100.00
46211;BME280;52144;48.040;-1.594;2023-04-23T01:50:58;99936.75;;;15.73;100.00
46211;BME280;52144;48.040;-1.594;2023-04-23T01:53:27;99933.41;;;15.58;100.00
46211;BME280;52144;48.040;-1.594;2023-04-23T01:55:55;99939.63;;;15.58;100.00
46211;BME280;52144;48.040;-1.594;2023-04-23T01:58:24;99927.91;;;15.71;100.00
46211;BME280;52144;48.040;-1.594;2023-04-23T02:00:52;99930.72;;;15.58;100.00
46211;BME280;52144;48.040;-1.594;2023-04-23T02:03:20;99920.69;;;15.71;100.00
46211;BME280;52144;48.040;-1.594;2023-04-23T02:05:49;99928.16;;;15.45;100.00
46211;BME280;52144;48.040;-1.594;2023-04-23T02:08:17;99916.56;;;15.56;100.00
46211;BME280;52144;48.040;-1.594;2023-04-23T02:10:44;99917.16;;;15.48;100.00
46211;BME280;52144;48.040;-1.594;2023-04-23T02:13:12;99918.31;;;15.79;100.00
46211;BME280;52144;48.040;-1.594;2023-04-23T02:15:42;99905.56;;;15.59;100.00
46211;BME280;52144;48.040;-1.594;2023-04-23T02:18:10;99905.81;;;15.67;100.00
46211;BME280;52144;48.040;-1.594;2023-04-23T02:20:38;99909.59;;;15.64;100.00
46211;BME280;52144;48.040;-1.594;2023-04-23T02:23:07;99899.84;;;15.63;100.00
46211;BME280;52144;48.040;-1.594;2023-04-23T02:25:35;99899.38;;;15.47;100.00
46211;BME280;52144;48.040;-1.594;2023-04-23T02:28:04;99900.19;;;15.59;100.00
46211;BME280;52144;48.040;-1.594;2023-04-23T02:30:33;99907.28;;;15.49;100.00
46211;BME280;52144;48.040;-1.594;2023-04-23T02:33:02;99908.66;;;15.43;100.00
46211;BME280;52144;48.040;-1.594;2023-04-23T02:35:30;99897.38;;;15.15;100.00
46211;BME280;52144;48.040;-1.594;2023-04-23T02:37:58;99899.47;;;15.45;100.00
46211;BME280;52144;48.040;-1.594;2023-04-23T02:40:26;99897.97;;;15.08;100.00
46211;BME280;52144;48.040;-1.594;2023-04-23T02:42:53;99890.78;;;15.19;100.00
46211;BME280;52144;48.040;-1.594;2023-04-23T02:45:21;99896.63;;;15.13;100.00
46211;BME280;52144;48.040;-1.594;2023-04-23T02:47:49;99893.00;;;15.14;100.00
46211;BME280;52144;48.040;-1.594;2023-04-23T02:50:20;99892.94;;;14.92;100.00
46211;BME280;52144;48.040;-1.594;2023-04-23T02:52:48;99886.81;;;14.90;100.00
46211;BME280;52144;48.040;-1.594;2023-04-23T02:55:16;99877.16;;;15.22;100.00
46211;BME280;52144;48.040;-1.594;2023-04-23T02:57:44;99884.47;;;15.32;100.00
46211;BME280;52144;48.040;-1.594;2023-04-23T03:00:12;99867.13;;;15.13;100.00
46211;BME280;52144;48.040;-1.594;2023-04-23T03:02:40;99870.22;;;14.73;100.00
46211;BME280;52144;48.040;-1.594;2023-04-23T03:05:09;99869.84;;;15.24;100.00
46211;BME280;52144;48.040;-1.594;2023-04-23T03:07:38;99868.00;;;14.67;100.00
46211;BME280;52144;48.040;-1.594;2023-04-23T03:10:06;99867.53;;;14.73;100.00
46211;BME280;52144;48.040;-1.594;2023-04-23T03:12:34;99861.28;;;15.19;100.00
46211;BME280;52144;48.040;-1.594;2023-04-23T03:15:02;99856.16;;;15.05;100.00
46211;BME280;52144;48.040;-1.594;2023-04-23T03:17:30;99848.28;;;14.79;100.00
46211;BME280;52144;48.040;-1.594;2023-04-23T03:19:58;99847.97;;;15.07;100.00
46211;BME280;52144;48.040;-1.594;2023-04-23T03:22:26;99847.75;;;14.63;100.00
46211;BME280;52144;48.040;-1.594;2023-04-23T03:24:55;99843.31;;;14.86;100.00
46211;BME280;52144;48.040;-1.594;2023-04-23T03:27:23;99841.00;;;15.04;100.00
46211;BME280;52144;48.040;-1.594;2023-04-23T03:29:50;99838.19;;;14.83;100.00
46211;BME280;52144;48.040;-1.594;2023-04-23T03:32:18;99836.63;;;15.03;100.00
46211;BME280;52144;48.040;-1.594;2023-04-23T03:34:46;99831.41;;;15.35;100.00
46211;BME280;52144;48.040;-1.594;2023-04-23T03:37:14;99829.44;;;15.15;100.00
46211;BME280;52144;48.040;-1.594;2023-04-23T03:39:41;99827.63;;;15.27;100.00
46211;BME280;52144;48.040;-1.594;2023-04-23T03:42:10;99822.25;;;15.27;100.00
46211;BME280;52144;48.040;-1.594;2023-04-23T03:44:38;99829.19;;;15.18;100.00
46211;BME280;52144;48.040;-1.594;2023-04-23T03:47:06;99820.91;;;15.32;100.00
46211;BME280;52144;48.040;-1.594;2023-04-23T03:49:34;99813.59;;;15.12;100.00
46211;BME280;52144;48.040;-1.594;2023-04-23T03:52:02;99819.31;;;15.30;100.00
46211;BME280;52144;48.040;-1.594;2023-04-23T03:54:30;99808.34;;;15.21;100.00
46211;BME280;52144;48.040;-1.594;2023-04-23T03:56:58;99802.34;;;15.40;100.00
46211;BME280;52144;48.040;-1.594;2023-04-23T03:59:27;99803.47;;;15.15;100.00
46211;BME280;52144;48.040;-1.594;2023-04-23T04:01:55;99799.22;;;15.13;100.00
46211;BME280;52144;48.040;-1.594;2023-04-23T04:04:24;99782.50;;;15.20;100.00
46211;BME280;52144;48.040;-1.594;2023-04-23T04:06:52;99787.63;;;15.12;100.00
46211;BME280;52144;48.040;-1.594;2023-04-23T04:09:19;99779.44;;;15.25;100.00
46211;BME280;52144;48.040;-1.594;2023-04-23T04:11:47;99770.91;;;15.09;100.00
46211;BME280;52144;48.040;-1.594;2023-04-23T04:14:17;99779.81;;;15.09;100.00
46211;BME280;52144;48.040;-1.594;2023-04-23T04:16:46;99773.22;;;15.13;100.00
46211;BME280;52144;48.040;-1.594;2023-04-23T04:19:14;99776.25;;;15.20;100.00
46211;BME280;52144;48.040;-1.594;2023-04-23T04:21:41;99764.56;;;15.21;100.00
46211;BME280;52144;48.040;-1.594;2023-04-23T04:24:09;99762.50;;;15.13;100.00
46211;BME280;52144;48.040;-1.594;2023-04-23T04:26:37;99756.28;;;15.13;100.00
46211;BME280;52144;48.040;-1.594;2023-04-23T04:29:05;99744.09;;;15.09;100.00
46211;BME280;52144;48.040;-1.594;2023-04-23T04:31:34;99723.47;;;14.87;100.00
46211;BME280;52144;48.040;-1.594;2023-04-23T04:34:04;99720.69;;;14.66;100.00
46211;BME280;52144;48.040;-1.594;2023-04-23T04:36:32;99716.16;;;14.66;100.00
46211;BME280;52144;48.040;-1.594;2023-04-23T04:39:01;99709.81;;;14.78;100.00
46211;BME280;52144;48.040;-1.594;2023-04-23T04:41:29;99699.97;;;14.68;100.00
46211;BME280;52144;48.040;-1.594;2023-04-23T04:43:57;99689.00;;;14.59;100.00
46211;BME280;52144;48.040;-1.594;2023-04-23T04:46:24;99688.59;;;14.75;100.00
46211;BME280;52144;48.040;-1.594;2023-04-23T04:48:54;99681.53;;;14.63;100.00
46211;BME280;52144;48.040;-1.594;2023-04-23T04:51:23;99674.22;;;14.54;100.00
46211;BME280;52144;48.040;-1.594;2023-04-23T04:53:51;99662.78;;;14.63;100.00
46211;BME280;52144;48.040;-1.594;2023-04-23T04:56:19;99662.38;;;14.34;100.00
46211;BME280;52144;48.040;-1.594;2023-04-23T04:58:49;99647.88;;;14.25;100.00
46211;BME280;52144;48.040;-1.594;2023-04-23T05:01:17;99636.28;;;14.24;100.00
46211;BME280;52144;48.040;-1.594;2023-04-23T05:03:45;99625.56;;;14.24;100.00
46211;BME280;52144;48.040;-1.594;2023-04-23T05:06:14;99629.19;;;14.01;100.00
46211;BME280;52144;48.040;-1.594;2023-04-23T05:08:43;99628.00;;;14.16;100.00
46211;BME280;52144;48.040;-1.594;2023-04-23T05:11:13;99618.84;;;14.08;100.00
46211;BME280;52144;48.040;-1.594;2023-04-23T05:13:41;99616.91;;;14.10;100.00
46211;BME280;52144;48.040;-1.594;2023-04-23T05:16:09;99607.78;;;14.12;100.00
46211;BME280;52144;48.040;-1.594;2023-04-23T05:18:37;99607.09;;;13.75;100.00
46211;BME280;52144;48.040;-1.594;2023-04-23T05:21:05;99590.59;;;13.92;100.00
46211;BME280;52144;48.040;-1.594;2023-04-23T05:23:35;99591.22;;;14.18;100.00
46211;BME280;52144;48.040;-1.594;2023-04-23T05:26:04;99577.28;;;13.79;100.00
46211;BME280;52144;48.040;-1.594;2023-04-23T05:28:32;99580.88;;;14.14;100.00
46211;BME280;52144;48.040;-1.594;2023-04-23T05:31:00;99566.97;;;13.97;100.00
46211;BME280;52144;48.040;-1.594;2023-04-23T05:33:28;99562.34;;;13.88;100.00
46211;BME280;52144;48.040;-1.594;2023-04-23T05:36:12;99540.44;;;13.83;100.00
46211;BME280;52144;48.040;-1.594;2023-04-23T05:38:40;99535.06;;;13.83;100.00
46211;BME280;52144;48.040;-1.594;2023-04-23T05:41:09;99528.91;;;13.47;100.00
46211;BME280;52144;48.040;-1.594;2023-04-23T05:43:36;99522.41;;;13.85;100.00
46211;BME280;52144;48.040;-1.594;2023-04-23T05:46:04;99510.59;;;13.65;100.00
46211;BME280;52144;48.040;-1.594;2023-04-23T05:48:33;99495.84;;;13.59;100.00
46211;BME280;52144;48.040;-1.594;2023-04-23T05:51:01;99480.66;;;13.60;100.00
46211;BME280;52144;48.040;-1.594;2023-04-23T05:53:29;99463.78;;;13.82;100.00
46211;BME280;52144;48.040;-1.594;2023-04-23T05:55:56;99443.06;;;13.73;100.00
46211;BME280;52144;48.040;-1.594;2023-04-23T05:58:25;99426.25;;;13.59;100.00
46211;BME280;52144;48.040;-1.594;2023-04-23T06:00:53;99402.34;;;13.22;100.00
46211;BME280;52144;48.040;-1.594;2023-04-23T06:03:23;99398.44;;;13.04;100.00
46211;BME280;52144;48.040;-1.594;2023-04-23T06:05:51;99391.16;;;13.06;100.00
46211;BME280;52144;48.040;-1.594;2023-04-23T06:08:19;99386.78;;;13.16;100.00
46211;BME280;52144;48.040;-1.594;2023-04-23T06:10:50;99373.88;;;12.99;100.00
46211;BME280;52144;48.040;-1.594;2023-04-23T06:13:17;99360.19;;;13.26;100.00
46211;BME280;52144;48.040;-1.594;2023-04-23T06:15:46;99361.03;;;13.15;100.00
46211;BME280;52144;48.040;-1.594;2023-04-23T06:18:14;99349.72;;;16.89;98.58
46211;BME280;52144;48.040;-1.594;2023-04-23T06:20:42;99362.25;;;17.17;95.14
46211;BME280;52144;48.040;-1.594;2023-04-23T06:23:11;99347.16;;;16.97;95.08
46211;BME280;52144;48.040;-1.594;2023-04-23T06:25:39;99339.66;;;17.38;93.62
46211;BME280;52144;48.040;-1.594;2023-04-23T06:28:07;99329.31;;;17.71;90.89
46211;BME280;52144;48.040;-1.594;2023-04-23T06:30:34;99299.69;;;17.05;93.11
46211;BME280;52144;48.040;-1.594;2023-04-23T06:33:04;99309.59;;;17.15;93.84
46211;BME280;52144;48.040;-1.594;2023-04-23T06:35:31;99294.69;;;16.54;97.00
46211;BME280;52144;48.040;-1.594;2023-04-23T06:37:59;99291.31;;;17.18;94.74
46211;BME280;52144;48.040;-1.594;2023-04-23T06:40:27;99297.25;;;17.50;94.35
46211;BME280;52144;48.040;-1.594;2023-04-23T06:42:55;99287.88;;;17.54;91.22
46211;BME280;52144;48.040;-1.594;2023-04-23T06:45:22;99284.28;;;17.91;89.68
46211;BME280;52144;48.040;-1.594;2023-04-23T06:47:50;99279.22;;;18.41;89.39
46211;BME280;52144;48.040;-1.594;2023-04-23T06:50:20;99279.31;;;18.76;84.63
46211;BME280;52144;48.040;-1.594;2023-04-23T06:52:47;99285.84;;;19.17;86.77
46211;BME280;52144;48.040;-1.594;2023-04-23T06:55:15;99281.28;;;19.52;83.82
46211;BME280;52144;48.040;-1.594;2023-04-23T06:57:43;99282.59;;;19.74;83.50
46211;BME280;52144;48.040;-1.594;2023-04-23T07:00:12;99279.63;;;19.59;82.60
46211;BME280;52144;48.040;-1.594;2023-04-23T07:02:40;99270.94;;;19.82;81.98
46211;BME280;52144;48.040;-1.594;2023-04-23T07:05:08;99281.41;;;19.77;81.65
46211;BME280;52144;48.040;-1.594;2023-04-23T07:07:38;99263.28;;;19.69;81.91
46211;BME280;52144;48.040;-1.594;2023-04-23T07:10:09;99262.81;;;19.82;82.36
46211;BME280;52144;48.040;-1.594;2023-04-23T07:12:38;99254.53;;;19.75;81.56
46211;BME280;52144;48.040;-1.594;2023-04-23T07:15:07;99257.41;;;19.82;83.03
46211;BME280;52144;48.040;-1.594;2023-04-23T07:17:35;99278.09;;;19.22;86.16
46211;BME280;52144;48.040;-1.594;2023-04-23T07:20:04;99293.50;;;18.60;88.53
46211;BME280;52144;48.040;-1.594;2023-04-23T07:22:32;99333.28;;;16.72;97.36
46211;BME280;52144;48.040;-1.594;2023-04-23T07:25:01;99347.56;;;16.04;99.27
46211;BME280;52144;48.040;-1.594;2023-04-23T07:27:30;99358.44;;;16.03;93.34
46211;BME280;52144;48.040;-1.594;2023-04-23T07:29:58;99378.69;;;16.17;89.67
46211;BME280;52144;48.040;-1.594;2023-04-23T07:32:27;99386.09;;;16.54;88.27
46211;BME280;52144;48.040;-1.594;2023-04-23T07:34:55;99385.81;;;16.47;87.31
46211;BME280;52144;48.040;-1.594;2023-04-23T07:37:23;99401.00;;;16.08;86.94
46211;BME280;52144;48.040;-1.594;2023-04-23T07:39:50;99388.91;;;16.23;86.70
46211;BME280;52144;48.040;-1.594;2023-04-23T07:42:20;99395.19;;;16.82;83.26
46211;BME280;52144;48.040;-1.594;2023-04-23T07:44:48;99407.19;;;17.07;81.95
46211;BME280;52144;48.040;-1.594;2023-04-23T07:47:16;99429.25;;;16.52;82.83
46211;BME280;52144;48.040;-1.594;2023-04-23T07:49:44;99428.31;;;17.12;81.16
46211;BME280;52144;48.040;-1.594;2023-04-23T07:52:11;99431.84;;;18.07;79.94
46211;BME280;52144;48.040;-1.594;2023-04-23T07:54:40;99449.00;;;17.58;79.74
46211;BME280;52144;48.040;-1.594;2023-04-23T07:57:08;99471.38;;;17.69;78.22
46211;BME280;52144;48.040;-1.594;2023-04-23T07:59:38;99466.53;;;17.25;78.27
46211;BME280;52144;48.040;-1.594;2023-04-23T08:02:07;99504.88;;;17.56;77.49
46211;BME280;52144;48.040;-1.594;2023-04-23T08:04:35;99508.59;;;16.97;81.41
46211;BME280;52144;48.040;-1.594;2023-04-23T08:07:03;99530.66;;;16.81;84.46
46211;BME280;52144;48.040;-1.594;2023-04-23T08:09:31;99549.97;;;17.35;81.66
46211;BME280;52144;48.040;-1.594;2023-04-23T08:11:58;99573.66;;;16.31;85.66
46211;BME280;52144;48.040;-1.594;2023-04-23T08:14:27;99577.13;;;16.42;86.15
46211;BME280;52144;48.040;-1.594;2023-04-23T08:16:56;99598.59;;;16.73;85.55
46211;BME280;52144;48.040;-1.594;2023-04-23T08:19:24;99607.06;;;16.38;85.64
46211;BME280;52144;48.040;-1.594;2023-04-23T08:21:57;99620.31;;;16.51;84.41
46211;BME280;52144;48.040;-1.594;2023-04-23T08:24:24;99630.28;;;17.10;82.29
46211;BME280;52144;48.040;-1.594;2023-04-23T08:26:52;99627.03;;;17.16;83.40
46211;BME280;52144;48.040;-1.594;2023-04-23T08:29:20;99634.44;;;17.53;82.10
46211;BME280;52144;48.040;-1.594;2023-04-23T08:31:48;99650.63;;;16.62;82.91
46211;BME280;52144;48.040;-1.594;2023-04-23T08:34:17;99647.63;;;16.87;82.52
46211;BME280;52144;48.040;-1.594;2023-04-23T08:36:45;99648.97;;;16.71;84.91
46211;BME280;52144;48.040;-1.594;2023-04-23T08:39:14;99648.03;;;17.42;81.64
46211;BME280;52144;48.040;-1.594;2023-04-23T08:41:43;99664.69;;;17.07;81.60
46211;BME280;52144;48.040;-1.594;2023-04-23T08:44:17;99660.28;;;16.75;82.80
46211;BME280;52144;48.040;-1.594;2023-04-23T08:46:45;99680.47;;;17.31;80.91
46211;BME280;52144;48.040;-1.594;2023-04-23T08:49:14;99670.81;;;17.18;81.67
46211;BME280;52144;48.040;-1.594;2023-04-23T08:51:47;99683.78;;;17.73;79.71
46211;BME280;52144;48.040;-1.594;2023-04-23T08:54:20;99687.00;;;17.48;79.18
46211;BME280;52144;48.040;-1.594;2023-04-23T08:56:48;99688.03;;;17.76;79.49
46211;BME280;52144;48.040;-1.594;2023-04-23T08:59:17;99689.69;;;18.35;74.73
46211;BME280;52144;48.040;-1.594;2023-04-23T09:01:46;99683.63;;;18.80;73.55
46211;BME280;52144;48.040;-1.594;2023-04-23T09:04:14;99686.88;;;18.37;75.41
46211;BME280;52144;48.040;-1.594;2023-04-23T09:06:46;99692.13;;;18.86;74.82
46211;BME280;52144;48.040;-1.594;2023-04-23T09:09:15;99695.00;;;18.08;72.98
46211;BME280;52144;48.040;-1.594;2023-04-23T09:11:43;99705.22;;;17.94;75.13
46211;BME280;52144;48.040;-1.594;2023-04-23T09:14:11;99707.25;;;18.59;72.07
46211;BME280;52144;48.040;-1.594;2023-04-23T09:16:39;99700.34;;;18.47;71.18
46211;BME280;52144;48.040;-1.594;2023-04-23T09:19:08;99704.69;;;18.67;72.36
46211;BME280;52144;48.040;-1.594;2023-04-23T09:21:37;99706.56;;;18.57;71.90
46211;BME280;52144;48.040;-1.594;2023-04-23T09:24:09;99709.50;;;18.63;70.50
46211;BME280;52144;48.040;-1.594;2023-04-23T09:26:43;99706.22;;;18.79;71.48
46211;BME280;52144;48.040;-1.594;2023-04-23T09:29:13;99705.44;;;18.97;69.88
46211;BME280;52144;48.040;-1.594;2023-04-23T09:31:43;99716.41;;;18.38;71.84
46211;BME280;52144;48.040;-1.594;2023-04-23T09:34:11;99725.25;;;19.71;68.33
46211;BME280;52144;48.040;-1.594;2023-04-23T09:36:41;99729.56;;;19.99;68.83
46211;BME280;52144;48.040;-1.594;2023-04-23T09:39:12;99732.75;;;19.21;68.94
46211;BME280;52144;48.040;-1.594;2023-04-23T09:41:40;99737.94;;;19.33;70.61
46211;BME280;52144;48.040;-1.594;2023-04-23T09:44:08;99743.22;;;18.30;76.76
46211;BME280;52144;48.040;-1.594;2023-04-23T09:46:39;99736.50;;;19.38;75.05
46211;BME280;52144;48.040;-1.594;2023-04-23T09:49:08;99749.66;;;19.79;74.81
46211;BME280;52144;48.040;-1.594;2023-04-23T09:51:36;99754.66;;;19.74;71.58
46211;BME280;52144;48.040;-1.594;2023-04-23T09:54:11;99749.63;;;19.51;75.09
46211;BME280;52144;48.040;-1.594;2023-04-23T09:56:40;99756.66;;;19.44;75.03
46211;BME280;52144;48.040;-1.594;2023-04-23T09:59:21;99754.81;;;20.08;73.07
46211;BME280;52144;48.040;-1.594;2023-04-23T10:02:10;99752.84;;;19.09;76.30
46211;BME280;52144;48.040;-1.594;2023-04-23T10:04:38;99756.28;;;20.02;73.86
46211;BME280;52144;48.040;-1.594;2023-04-23T10:07:07;99760.28;;;19.98;73.42
46211;BME280;52144;48.040;-1.594;2023-04-23T10:09:43;99767.31;;;19.18;75.97
46211;BME280;52144;48.040;-1.594;2023-04-23T10:12:12;99771.88;;;19.73;74.84
46211;BME280;52144;48.040;-1.594;2023-04-23T10:14:44;99767.16;;;19.75;74.17
46211;BME280;52144;48.040;-1.594;2023-04-23T10:17:14;99781.53;;;19.75;72.05
46211;BME280;52144;48.040;-1.594;2023-04-23T10:19:43;99774.34;;;19.84;74.05
46211;BME280;52144;48.040;-1.594;2023-04-23T10:22:13;99782.94;;;20.15;73.49
46211;BME280;52144;48.040;-1.594;2023-04-23T10:24:47;99780.84;;;19.63;71.34
46211;BME280;52144;48.040;-1.594;2023-04-23T10:27:19;99783.03;;;20.06;71.14
46211;BME280;52144;48.040;-1.594;2023-04-23T10:30:06;99782.22;;;19.77;74.16
46211;BME280;52144;48.040;-1.594;2023-04-23T10:32:35;99772.41;;;20.48;71.42
46211;BME280;52144;48.040;-1.594;2023-04-23T10:35:04;99767.34;;;20.71;69.92
46211;BME280;52144;48.040;-1.594;2023-04-23T10:37:33;99775.72;;;21.12;68.10
46211;BME280;52144;48.040;-1.594;2023-04-23T10:40:06;99781.78;;;21.06;68.95
46211;BME280;52144;48.040;-1.594;2023-04-23T10:42:37;99778.91;;;19.83;66.97
46211;BME280;52144;48.040;-1.594;2023-04-23T10:45:12;99779.75;;;20.56;67.86
46211;BME280;52144;48.040;-1.594;2023-04-23T10:47:52;99773.41;;;20.91;66.92
46211;BME280;52144;48.040;-1.594;2023-04-23T10:50:22;99771.34;;;21.19;63.82
46211;BME280;52144;48.040;-1.594;2023-04-23T10:52:51;99761.41;;;21.71;65.93
46211;BME280;52144;48.040;-1.594;2023-04-23T10:55:22;99771.13;;;21.98;63.56
46211;BME280;52144;48.040;-1.594;2023-04-23T10:57:56;99765.84;;;23.11;62.29
46211;BME280;52144;48.040;-1.594;2023-04-23T11:00:29;99759.84;;;22.43;59.24
46211;BME280;52144;48.040;-1.594;2023-04-23T11:02:57;99754.72;;;22.24;60.58
46211;BME280;52144;48.040;-1.594;2023-04-23T11:05:25;99757.13;;;22.52;62.01
46211;BME280;52144;48.040;-1.594;2023-04-23T11:08:02;99753.34;;;22.20;61.07
46211;BME280;52144;48.040;-1.594;2023-04-23T11:10:54;99755.22;;;22.60;58.04
46211;BME280;52144;48.040;-1.594;2023-04-23T11:13:23;99776.06;;;22.19;59.22
46211;BME280;52144;48.040;-1.594;2023-04-23T11:16:14;99768.78;;;22.19;60.39
46211;BME280;52144;48.040;-1.594;2023-04-23T11:18:58;99765.25;;;22.52;57.92
46211;BME280;52144;48.040;-1.594;2023-04-23T11:21:57;99766.25;;;22.26;61.41
46211;BME280;52144;48.040;-1.594;2023-04-23T11:24:26;99761.38;;;21.62;67.04
46211;BME280;52144;48.040;-1.594;2023-04-23T11:26:56;99761.47;;;21.95;65.03
46211;BME280;52144;48.040;-1.594;2023-04-23T11:29:26;99765.53;;;22.08;64.95
46211;BME280;52144;48.040;-1.594;2023-04-23T11:31:55;99763.50;;;22.10;64.67
46211;BME280;52144;48.040;-1.594;2023-04-23T11:34:29;99768.19;;;21.67;66.54
46211;BME280;52144;48.040;-1.594;2023-04-23T11:36:58;99766.41;;;21.49;65.29
46211;BME280;52144;48.040;-1.594;2023-04-23T11:39:26;99772.97;;;21.04;67.09
46211;BME280;52144;48.040;-1.594;2023-04-23T11:41:56;99785.09;;;21.26;67.08
46211;BME280;52144;48.040;-1.594;2023-04-23T11:44:24;99782.09;;;21.03;68.39
46211;BME280;52144;48.040;-1.594;2023-04-23T11:46:53;99808.53;;;20.03;76.24
46211;BME280;52144;48.040;-1.594;2023-04-23T11:49:24;99810.56;;;18.89;84.12
46211;BME280;52144;48.040;-1.594;2023-04-23T11:51:51;99813.88;;;18.82;91.46
46211;BME280;52144;48.040;-1.594;2023-04-23T11:54:24;99818.66;;;17.81;88.46
46211;BME280;52144;48.040;-1.594;2023-04-23T11:56:53;99824.50;;;17.96;90.50
46211;BME280;52144;48.040;-1.594;2023-04-23T11:59:22;99834.91;;;18.79;86.54
46211;BME280;52144;48.040;-1.594;2023-04-23T12:01:52;99838.97;;;17.86;87.11
46211;BME280;52144;48.040;-1.594;2023-04-23T12:04:22;99833.75;;;18.03;88.02
46211;BME280;52144;48.040;-1.594;2023-04-23T12:06:51;99833.59;;;18.63;88.88
46211;BME280;52144;48.040;-1.594;2023-04-23T12:09:20;99838.59;;;19.25;86.78
46211;BME280;52144;48.040;-1.594;2023-04-23T12:11:49;99841.94;;;19.47;84.55
46211;BME280;52144;48.040;-1.594;2023-04-23T12:14:19;99846.56;;;20.37;79.22
46211;BME280;52144;48.040;-1.594;2023-04-23T12:16:54;99840.41;;;21.15;78.15
46211;BME280;52144;48.040;-1.594;2023-04-23T12:19:26;99836.66;;;20.90;78.36
46211;BME280;52144;48.040;-1.594;2023-04-23T12:21:55;99852.13;;;21.84;77.07
46211;BME280;52144;48.040;-1.594;2023-04-23T12:24:24;99846.44;;;20.29;78.37
46211;BME280;52144;48.040;-1.594;2023-04-23T12:26:54;99840.81;;;21.29;76.47
46211;BME280;52144;48.040;-1.594;2023-04-23T12:29:24;99836.09;;;20.24;81.33
46211;BME280;52144;48.040;-1.594;2023-04-23T12:31:58;99859.28;;;20.81;78.08
46211;BME280;52144;48.040;-1.594;2023-04-23T12:34:26;99892.78;;;19.98;80.02
46211;BME280;52144;48.040;-1.594;2023-04-23T12:36:54;99893.50;;;19.26;87.71
46211;BME280;52144;48.040;-1.594;2023-04-23T12:39:25;99889.78;;;18.00;89.22
46211;BME280;52144;48.040;-1.594;2023-04-23T12:41:55;99881.16;;;18.25;88.25
46211;BME280;52144;48.040;-1.594;2023-04-23T12:44:25;99888.13;;;18.96;87.46
46211;BME280;52144;48.040;-1.594;2023-04-23T12:46:55;99894.53;;;18.56;87.81
46211;BME280;52144;48.040;-1.594;2023-04-23T12:49:24;99900.88;;;19.23;87.53
46211;BME280;52144;48.040;-1.594;2023-04-23T12:51:54;99898.09;;;18.96;84.47
46211;BME280;52144;48.040;-1.594;2023-04-23T12:54:27;99905.16;;;19.16;85.81
46211;BME280;52144;48.040;-1.594;2023-04-23T12:56:57;99903.19;;;18.99;85.78